sensor_id;sensor_type;location;lat;lon;timestamp;temperature;humidity
54192;DHT22;40101;53.002;6.488;2024-01-07T00:01:51;0.10;99.90
54192;DHT22;40101;53.002;6.488;2024-01-07T00:04:17;-0.10;99.90
54192;DHT22;40101;53.002;6.488;2024-01-07T00:06:46;0.10;99.90
54192;DHT22;40101;53.002;6.488;2024-01-07T00:09:12;0.20;99.90
54192;DHT22;40101;53.002;6.488;2024-01-07T00:11:38;0.10;99.90
54192;DHT22;40101;53.002;6.488;2024-01-07T00:14:05;0.10;99.90
54192;DHT22;40101;53.002;6.488;2024-01-07T00:16:30;0.10;99.90
54192;DHT22;40101;53.002;6.488;2024-01-07T00:18:58;0.10;99.90
54192;DHT22;40101;53.002;6.488;2024-01-07T00:21:24;0.10;99.90
54192;DHT22;40101;53.002;6.488;2024-01-07T00:23:50;0.10;99.90
54192;DHT22;40101;53.002;6.488;2024-01-07T00:26:15;0.10;99.90
54192;DHT22;40101;53.002;6.488;2024-01-07T00:28:41;0.10;99.90
54192;DHT22;40101;53.002;6.488;2024-01-07T00:31:07;0.10;99.90
54192;DHT22;40101;53.002;6.488;2024-01-07T00:33:35;0.10;99.90
54192;DHT22;40101;53.002;6.488;2024-01-07T00:36:03;0.10;99.90
54192;DHT22;40101;53.002;6.488;2024-01-07T00:38:28;0.10;99.90
54192;DHT22;40101;53.002;6.488;2024-01-07T00:40:54;0.00;99.90
54192;DHT22;40101;53.002;6.488;2024-01-07T00:43:22;0.10;99.90
54192;DHT22;40101;53.002;6.488;2024-01-07T00:45:47;0.20;99.90
54192;DHT22;40101;53.002;6.488;2024-01-07T00:48:14;0.00;99.90
54192;DHT22;40101;53.002;6.488;2024-01-07T00:50:40;0.00;99.90
54192;DHT22;40101;53.002;6.488;2024-01-07T00:53:06;0.00;99.90
54192;DHT22;40101;53.002;6.488;2024-01-07T00:55:31;0.10;99.90
54192;DHT22;40101;53.002;6.488;2024-01-07T00:57:57;0.50;99.90
54192;DHT22;40101;53.002;6.488;2024-01-07T01:00:25;0.00;99.90
54192;DHT22;40101;53.002;6.488;2024-01-07T01:02:52;0.00;99.90
54192;DHT22;40101;53.002;6.488;2024-01-07T01:05:18;0.00;99.90
54192;DHT22;40101;53.002;6.488;2024-01-07T01:07:43;0.00;99.90
54192;DHT22;40101;53.002;6.488;2024-01-07T01:10:09;0.00;99.90
54192;DHT22;40101;53.002;6.488;2024-01-07T01:12:35;0.00;99.90
54192;DHT22;40101;53.002;6.488;2024-01-07T01:15:01;0.00;99.90
54192;DHT22;40101;53.002;6.488;2024-01-07T01:17:26;0.00;99.90
54192;DHT22;40101;53.002;6.488;2024-01-07T01:19:52;0.10;99.90
54192;DHT22;40101;53.002;6.488;2024-01-07T01:22:18;0.00;99.90
54192;DHT22;40101;53.002;6.488;2024-01-07T01:24:43;0.10;99.90
54192;DHT22;40101;53.002;6.488;2024-01-07T01:27:11;0.10;99.90
54192;DHT22;40101;53.002;6.488;2024-01-07T01:29:38;0.10;99.90
54192;DHT22;40101;53.002;6.488;2024-01-07T01:32:05;0.10;99.90
54192;DHT22;40101;53.002;6.488;2024-01-07T01:34:32;0.10;99.90
54192;DHT22;40101;53.002;6.488;2024-01-07T01:36:57;0.10;99.90
54192;DHT22;40101;53.002;6.488;2024-01-07T01:39:23;0.00;99.90
54192;DHT22;40101;53.002;6.488;2024-01-07T01:41:49;0.00;99.90
54192;DHT22;40101;53.002;6.488;2024-01-07T01:44:14;0.00;99.90
54192;DHT22;40101;53.002;6.488;2024-01-07T01:46:40;0.00;99.90
54192;DHT22;40101;53.002;6.488;2024-01-07T01:49:07;0.00;99.90
54192;DHT22;40101;53.002;6.488;2024-01-07T01:51:33;0.00;99.90
54192;DHT22;40101;53.002;6.488;2024-01-07T01:53:59;0.00;99.90
54192;DHT22;40101;53.002;6.488;2024-01-07T01:56:27;0.00;99.90
54192;DHT22;40101;53.002;6.488;2024-01-07T01:58:54;0.20;99.90
54192;DHT22;40101;53.002;6.488;2024-01-07T02:01:20;0.00;99.90
54192;DHT22;40101;53.002;6.488;2024-01-07T02:03:46;0.00;99.90
54192;DHT22;40101;53.002;6.488;2024-01-07T02:06:12;0.00;99.90
54192;DHT22;40101;53.002;6.488;2024-01-07T02:08:38;0.00;99.90
54192;DHT22;40101;53.002;6.488;2024-01-07T02:11:18;-0.10;99.90
54192;DHT22;40101;53.002;6.488;2024-01-07T02:13:44;0.00;99.90
54192;DHT22;40101;53.002;6.488;2024-01-07T02:16:10;0.00;99.90
54192;DHT22;40101;53.002;6.488;2024-01-07T02:18:46;0.00;99.90
54192;DHT22;40101;53.002;6.488;2024-01-07T02:21:13;0.00;99.90
54192;DHT22;40101;53.002;6.488;2024-01-07T02:23:40;0.00;99.90
54192;DHT22;40101;53.002;6.488;2024-01-07T02:26:05;0.00;99.90
54192;DHT22;40101;53.002;6.488;2024-01-07T02:28:34;0.00;99.90
54192;DHT22;40101;53.002;6.488;2024-01-07T02:31:00;0.00;99.90
54192;DHT22;40101;53.002;6.488;2024-01-07T02:33:25;0.00;99.90
54192;DHT22;40101;53.002;6.488;2024-01-07T02:35:51;0.00;99.90
54192;DHT22;40101;53.002;6.488;2024-01-07T02:38:16;-0.10;99.90
54192;DHT22;40101;53.002;6.488;2024-01-07T02:40:42;0.00;99.90
54192;DHT22;40101;53.002;6.488;2024-01-07T02:43:08;-0.10;99.90
54192;DHT22;40101;53.002;6.488;2024-01-07T02:45:34;0.00;99.90
54192;DHT22;40101;53.002;6.488;2024-01-07T02:47:59;-0.10;99.90
54192;DHT22;40101;53.002;6.488;2024-01-07T02:50:25;-0.10;99.90
54192;DHT22;40101;53.002;6.488;2024-01-07T02:52:51;0.30;99.90
54192;DHT22;40101;53.002;6.488;2024-01-07T02:55:17;0.30;99.90
54192;DHT22;40101;53.002;6.488;2024-01-07T02:57:42;-0.10;99.90
54192;DHT22;40101;53.002;6.488;2024-01-07T03:00:08;-0.10;99.90
54192;DHT22;40101;53.002;6.488;2024-01-07T03:02:34;-0.10;99.90
54192;DHT22;40101;53.002;6.488;2024-01-07T03:05:00;-0.10;99.90
54192;DHT22;40101;53.002;6.488;2024-01-07T03:07:25;-0.10;99.90
54192;DHT22;40101;53.002;6.488;2024-01-07T03:09:51;-0.10;99.90
54192;DHT22;40101;53.002;6.488;2024-01-07T03:12:17;-0.10;99.90
54192;DHT22;40101;53.002;6.488;2024-01-07T03:14:43;-0.10;99.90
54192;DHT22;40101;53.002;6.488;2024-01-07T03:17:10;0.10;99.90
54192;DHT22;40101;53.002;6.488;2024-01-07T03:19:37;-0.10;99.90
54192;DHT22;40101;53.002;6.488;2024-01-07T03:22:02;0.20;99.90
54192;DHT22;40101;53.002;6.488;2024-01-07T03:24:28;-0.10;99.90
54192;DHT22;40101;53.002;6.488;2024-01-07T03:26:54;-0.10;99.90
54192;DHT22;40101;53.002;6.488;2024-01-07T03:29:19;-0.10;99.90
54192;DHT22;40101;53.002;6.488;2024-01-07T03:31:45;-0.10;99.90
54192;DHT22;40101;53.002;6.488;2024-01-07T03:34:11;0.30;99.90
54192;DHT22;40101;53.002;6.488;2024-01-07T03:36:36;-0.10;99.90
54192;DHT22;40101;53.002;6.488;2024-01-07T03:39:02;-0.10;99.90
54192;DHT22;40101;53.002;6.488;2024-01-07T03:41:27;-0.10;99.90
54192;DHT22;40101;53.002;6.488;2024-01-07T03:43:53;-0.10;99.90
54192;DHT22;40101;53.002;6.488;2024-01-07T03:46:19;0.30;99.90
54192;DHT22;40101;53.002;6.488;2024-01-07T03:48:45;-0.10;99.90
54192;DHT22;40101;53.002;6.488;2024-01-07T03:51:10;-0.10;99.90
54192;DHT22;40101;53.002;6.488;2024-01-07T03:53:36;0.30;99.90
54192;DHT22;40101;53.002;6.488;2024-01-07T03:56:02;-0.20;99.90
54192;DHT22;40101;53.002;6.488;2024-01-07T03:58:28;-0.10;99.90
54192;DHT22;40101;53.002;6.488;2024-01-07T04:00:54;-0.20;99.90
54192;DHT22;40101;53.002;6.488;2024-01-07T04:03:19;-0.20;99.90
54192;DHT22;40101;53.002;6.488;2024-01-07T04:05:45;-0.20;99.90
54192;DHT22;40101;53.002;6.488;2024-01-07T04:08:11;-0.20;99.90
54192;DHT22;40101;53.002;6.488;2024-01-07T04:10:37;0.10;99.90
54192;DHT22;40101;53.002;6.488;2024-01-07T04:13:06;-0.20;99.90
54192;DHT22;40101;53.002;6.488;2024-01-07T04:15:31;-0.20;99.90
54192;DHT22;40101;53.002;6.488;2024-01-07T04:18:01;-0.20;99.90
54192;DHT22;40101;53.002;6.488;2024-01-07T04:20:27;-0.20;99.90
54192;DHT22;40101;53.002;6.488;2024-01-07T04:22:53;0.10;99.90
54192;DHT22;40101;53.002;6.488;2024-01-07T04:25:19;-0.20;99.90
54192;DHT22;40101;53.002;6.488;2024-01-07T04:27:44;-0.20;99.90
54192;DHT22;40101;53.002;6.488;2024-01-07T04:30:10;-0.20;99.90
54192;DHT22;40101;53.002;6.488;2024-01-07T04:32:36;-0.20;99.90
54192;DHT22;40101;53.002;6.488;2024-01-07T04:35:02;-0.20;99.90
54192;DHT22;40101;53.002;6.488;2024-01-07T04:37:27;-0.20;99.90
54192;DHT22;40101;53.002;6.488;2024-01-07T04:39:53;-0.20;99.90
54192;DHT22;40101;53.002;6.488;2024-01-07T04:42:19;-0.20;99.90
54192;DHT22;40101;53.002;6.488;2024-01-07T04:44:44;-0.20;99.90
54192;DHT22;40101;53.002;6.488;2024-01-07T04:47:30;-0.20;99.90
54192;DHT22;40101;53.002;6.488;2024-01-07T04:49:56;-0.20;99.90
54192;DHT22;40101;53.002;6.488;2024-01-07T04:52:23;-0.20;99.90
54192;DHT22;40101;53.002;6.488;2024-01-07T04:54:50;-0.20;99.90
54192;DHT22;40101;53.002;6.488;2024-01-07T04:57:17;-0.20;99.90
54192;DHT22;40101;53.002;6.488;2024-01-07T04:59:43;-0.20;99.90
54192;DHT22;40101;53.002;6.488;2024-01-07T05:02:10;-0.20;99.90
54192;DHT22;40101;53.002;6.488;2024-01-07T05:04:36;-0.10;99.90
54192;DHT22;40101;53.002;6.488;2024-01-07T05:07:02;-0.10;99.90
54192;DHT22;40101;53.002;6.488;2024-01-07T05:09:28;-0.10;99.90
54192;DHT22;40101;53.002;6.488;2024-01-07T05:11:53;-0.10;99.90
54192;DHT22;40101;53.002;6.488;2024-01-07T05:14:19;-0.10;99.90
54192;DHT22;40101;53.002;6.488;2024-01-07T05:16:44;-0.10;99.90
54192;DHT22;40101;53.002;6.488;2024-01-07T05:19:10;-0.10;99.90
54192;DHT22;40101;53.002;6.488;2024-01-07T05:21:36;-0.10;99.90
54192;DHT22;40101;53.002;6.488;2024-01-07T05:24:01;-0.10;99.90
54192;DHT22;40101;53.002;6.488;2024-01-07T05:26:27;-0.10;99.90
54192;DHT22;40101;53.002;6.488;2024-01-07T05:28:52;0.20;99.90
54192;DHT22;40101;53.002;6.488;2024-01-07T05:31:18;-0.20;99.90
54192;DHT22;40101;53.002;6.488;2024-01-07T05:33:45;-0.10;99.90
54192;DHT22;40101;53.002;6.488;2024-01-07T05:36:13;-0.10;99.90
54192;DHT22;40101;53.002;6.488;2024-01-07T05:38:38;-0.10;99.90
54192;DHT22;40101;53.002;6.488;2024-01-07T05:41:04;-0.10;99.90
54192;DHT22;40101;53.002;6.488;2024-01-07T05:43:30;-0.10;99.90
54192;DHT22;40101;53.002;6.488;2024-01-07T05:45:56;-0.10;99.90
54192;DHT22;40101;53.002;6.488;2024-01-07T05:48:22;-0.10;99.90
54192;DHT22;40101;53.002;6.488;2024-01-07T05:50:48;0.00;99.90
54192;DHT22;40101;53.002;6.488;2024-01-07T05:53:14;-0.10;99.90
54192;DHT22;40101;53.002;6.488;2024-01-07T05:55:40;-0.20;99.90
54192;DHT22;40101;53.002;6.488;2024-01-07T05:58:05;-0.10;99.90
54192;DHT22;40101;53.002;6.488;2024-01-07T06:00:31;-0.10;99.90
54192;DHT22;40101;53.002;6.488;2024-01-07T06:02:57;-0.10;99.90
54192;DHT22;40101;53.002;6.488;2024-01-07T06:05:23;-0.10;99.90
54192;DHT22;40101;53.002;6.488;2024-01-07T06:07:48;-0.10;99.90
54192;DHT22;40101;53.002;6.488;2024-01-07T06:10:14;-0.10;99.90
54192;DHT22;40101;53.002;6.488;2024-01-07T06:12:40;-0.10;99.90
54192;DHT22;40101;53.002;6.488;2024-01-07T06:15:06;-0.10;99.90
54192;DHT22;40101;53.002;6.488;2024-01-07T06:17:32;-0.10;99.90
54192;DHT22;40101;53.002;6.488;2024-01-07T06:19:58;-0.10;99.90
54192;DHT22;40101;53.002;6.488;2024-01-07T06:22:23;-0.10;99.90
54192;DHT22;40101;53.002;6.488;2024-01-07T06:24:49;-0.10;99.90
54192;DHT22;40101;53.002;6.488;2024-01-07T06:27:14;-0.10;99.90
54192;DHT22;40101;53.002;6.488;2024-01-07T06:29:40;-0.10;99.90
54192;DHT22;40101;53.002;6.488;2024-01-07T06:32:06;-0.10;99.90
54192;DHT22;40101;53.002;6.488;2024-01-07T06:34:32;-0.10;99.90
54192;DHT22;40101;53.002;6.488;2024-01-07T06:36:59;-0.10;99.90
54192;DHT22;40101;53.002;6.488;2024-01-07T06:39:25;-0.10;99.90
54192;DHT22;40101;53.002;6.488;2024-01-07T06:41:53;0.00;99.90
54192;DHT22;40101;53.002;6.488;2024-01-07T06:44:19;-0.10;99.90
54192;DHT22;40101;53.002;6.488;2024-01-07T06:46:45;-0.10;99.90
54192;DHT22;40101;53.002;6.488;2024-01-07T06:49:11;-0.10;99.90
54192;DHT22;40101;53.002;6.488;2024-01-07T06:51:37;-0.10;99.90
54192;DHT22;40101;53.002;6.488;2024-01-07T06:54:03;-0.10;99.90
54192;DHT22;40101;53.002;6.488;2024-01-07T06:56:29;-0.10;99.90
54192;DHT22;40101;53.002;6.488;2024-01-07T06:58:55;-0.10;99.90
54192;DHT22;40101;53.002;6.488;2024-01-07T07:01:21;-0.10;99.90
54192;DHT22;40101;53.002;6.488;2024-01-07T07:03:47;-0.10;99.90
54192;DHT22;40101;53.002;6.488;2024-01-07T07:06:13;-0.10;99.90
54192;DHT22;40101;53.002;6.488;2024-01-07T07:08:38;-0.10;99.90
54192;DHT22;40101;53.002;6.488;2024-01-07T07:11:04;-0.10;99.90
54192;DHT22;40101;53.002;6.488;2024-01-07T07:13:30;-0.10;99.90
54192;DHT22;40101;53.002;6.488;2024-01-07T07:15:55;-0.20;99.90
54192;DHT22;40101;53.002;6.488;2024-01-07T07:18:21;-0.20;99.90
54192;DHT22;40101;53.002;6.488;2024-01-07T07:20:47;-0.20;99.90
54192;DHT22;40101;53.002;6.488;2024-01-07T07:23:13;-0.20;99.90
54192;DHT22;40101;53.002;6.488;2024-01-07T07:25:39;-0.20;99.90
54192;DHT22;40101;53.002;6.488;2024-01-07T07:28:05;-0.20;99.90
54192;DHT22;40101;53.002;6.488;2024-01-07T07:30:31;-0.20;99.90
54192;DHT22;40101;53.002;6.488;2024-01-07T07:32:56;-0.20;99.90
54192;DHT22;40101;53.002;6.488;2024-01-07T07:35:22;-0.20;99.90
54192;DHT22;40101;53.002;6.488;2024-01-07T07:37:47;-0.20;99.90
54192;DHT22;40101;53.002;6.488;2024-01-07T07:40:13;-0.10;99.90
54192;DHT22;40101;53.002;6.488;2024-01-07T07:42:42;-0.20;99.90
54192;DHT22;40101;53.002;6.488;2024-01-07T07:45:08;0.20;99.90
54192;DHT22;40101;53.002;6.488;2024-01-07T07:47:34;-0.20;99.90
54192;DHT22;40101;53.002;6.488;2024-01-07T07:49:59;-0.20;99.90
54192;DHT22;40101;53.002;6.488;2024-01-07T07:52:26;-0.30;99.90
54192;DHT22;40101;53.002;6.488;2024-01-07T07:54:52;-0.30;99.90
54192;DHT22;40101;53.002;6.488;2024-01-07T07:57:19;-0.30;99.90
54192;DHT22;40101;53.002;6.488;2024-01-07T07:59:51;-0.40;99.90
54192;DHT22;40101;53.002;6.488;2024-01-07T08:02:17;-0.40;99.90
54192;DHT22;40101;53.002;6.488;2024-01-07T08:04:43;-0.40;99.90
54192;DHT22;40101;53.002;6.488;2024-01-07T08:07:09;-0.40;99.90
54192;DHT22;40101;53.002;6.488;2024-01-07T08:09:35;0.00;99.90
54192;DHT22;40101;53.002;6.488;2024-01-07T08:12:05;-0.50;99.90
54192;DHT22;40101;53.002;6.488;2024-01-07T08:14:32;-0.50;99.90
54192;DHT22;40101;53.002;6.488;2024-01-07T08:16:58;-0.40;99.90
54192;DHT22;40101;53.002;6.488;2024-01-07T08:19:24;-0.40;99.90
54192;DHT22;40101;53.002;6.488;2024-01-07T08:21:49;-0.30;99.90
54192;DHT22;40101;53.002;6.488;2024-01-07T08:24:15;0.20;99.90
54192;DHT22;40101;53.002;6.488;2024-01-07T08:26:40;-0.10;99.90
54192;DHT22;40101;53.002;6.488;2024-01-07T08:29:06;0.20;99.90
54192;DHT22;40101;53.002;6.488;2024-01-07T08:31:32;0.40;99.90
54192;DHT22;40101;53.002;6.488;2024-01-07T08:33:58;0.50;99.90
54192;DHT22;40101;53.002;6.488;2024-01-07T08:36:24;0.50;99.90
54192;DHT22;40101;53.002;6.488;2024-01-07T08:38:49;0.70;99.90
54192;DHT22;40101;53.002;6.488;2024-01-07T08:41:16;0.40;99.90
54192;DHT22;40101;53.002;6.488;2024-01-07T08:43:42;0.30;99.90
54192;DHT22;40101;53.002;6.488;2024-01-07T08:46:07;0.60;99.90
54192;DHT22;40101;53.002;6.488;2024-01-07T08:48:33;0.30;99.90
54192;DHT22;40101;53.002;6.488;2024-01-07T08:50:59;0.10;99.90
54192;DHT22;40101;53.002;6.488;2024-01-07T08:53:24;0.10;99.90
54192;DHT22;40101;53.002;6.488;2024-01-07T08:55:51;0.30;99.90
54192;DHT22;40101;53.002;6.488;2024-01-07T08:58:16;0.70;99.90
54192;DHT22;40101;53.002;6.488;2024-01-07T09:00:43;1.10;99.90
54192;DHT22;40101;53.002;6.488;2024-01-07T09:03:09;1.40;99.90
54192;DHT22;40101;53.002;6.488;2024-01-07T09:05:36;1.80;99.90
54192;DHT22;40101;53.002;6.488;2024-01-07T09:08:02;2.20;99.90
54192;DHT22;40101;53.002;6.488;2024-01-07T09:10:28;2.50;99.90
54192;DHT22;40101;53.002;6.488;2024-01-07T09:12:53;2.80;99.90
54192;DHT22;40101;53.002;6.488;2024-01-07T09:15:20;3.20;99.90
54192;DHT22;40101;53.002;6.488;2024-01-07T09:17:48;3.60;99.90
54192;DHT22;40101;53.002;6.488;2024-01-07T09:20:14;3.60;99.90
54192;DHT22;40101;53.002;6.488;2024-01-07T09:22:39;3.30;99.90
54192;DHT22;40101;53.002;6.488;2024-01-07T09:25:06;2.90;99.90
54192;DHT22;40101;53.002;6.488;2024-01-07T09:27:32;2.50;99.90
54192;DHT22;40101;53.002;6.488;2024-01-07T09:29:58;2.40;99.90
54192;DHT22;40101;53.002;6.488;2024-01-07T09:32:24;2.40;99.90
54192;DHT22;40101;53.002;6.488;2024-01-07T09:34:50;2.50;99.90
54192;DHT22;40101;53.002;6.488;2024-01-07T09:37:17;2.50;99.90
54192;DHT22;40101;53.002;6.488;2024-01-07T09:39:42;2.40;99.90
54192;DHT22;40101;53.002;6.488;2024-01-07T09:42:15;2.20;99.90
54192;DHT22;40101;53.002;6.488;2024-01-07T09:44:42;1.90;99.90
54192;DHT22;40101;53.002;6.488;2024-01-07T09:47:12;1.60;99.90
54192;DHT22;40101;53.002;6.488;2024-01-07T09:49:39;1.30;99.90
54192;DHT22;40101;53.002;6.488;2024-01-07T09:52:05;1.50;99.90
54192;DHT22;40101;53.002;6.488;2024-01-07T09:54:31;0.90;99.90
54192;DHT22;40101;53.002;6.488;2024-01-07T09:57:01;0.70;99.90
54192;DHT22;40101;53.002;6.488;2024-01-07T09:59:30;0.70;99.90
54192;DHT22;40101;53.002;6.488;2024-01-07T10:01:56;0.60;99.90
54192;DHT22;40101;53.002;6.488;2024-01-07T10:19:47;0.60;99.90
54192;DHT22;40101;53.002;6.488;2024-01-07T10:22:13;0.60;99.90
54192;DHT22;40101;53.002;6.488;2024-01-07T10:24:40;0.60;99.90
54192;DHT22;40101;53.002;6.488;2024-01-07T10:27:07;0.60;99.90
54192;DHT22;40101;53.002;6.488;2024-01-07T10:29:33;0.60;99.90
54192;DHT22;40101;53.002;6.488;2024-01-07T10:32:00;0.60;99.90
54192;DHT22;40101;53.002;6.488;2024-01-07T10:34:30;0.60;99.90
54192;DHT22;40101;53.002;6.488;2024-01-07T10:36:59;0.60;99.90
54192;DHT22;40101;53.002;6.488;2024-01-07T10:39:25;0.60;99.90
54192;DHT22;40101;53.002;6.488;2024-01-07T10:41:51;0.70;99.90
54192;DHT22;40101;53.002;6.488;2024-01-07T10:44:19;0.70;99.90
54192;DHT22;40101;53.002;6.488;2024-01-07T10:46:46;0.70;99.90
54192;DHT22;40101;53.002;6.488;2024-01-07T10:49:20;0.70;99.90
54192;DHT22;40101;53.002;6.488;2024-01-07T10:54:29;0.80;99.90
54192;DHT22;40101;53.002;6.488;2024-01-07T10:56:59;0.90;99.90
54192;DHT22;40101;53.002;6.488;2024-01-07T10:59:26;0.90;99.90
54192;DHT22;40101;53.002;6.488;2024-01-07T11:01:53;1.00;99.90
54192;DHT22;40101;53.002;6.488;2024-01-07T11:06:57;1.10;99.90
54192;DHT22;40101;53.002;6.488;2024-01-07T11:09:37;1.10;99.90
54192;DHT22;40101;53.002;6.488;2024-01-07T11:12:05;1.20;99.90
54192;DHT22;40101;53.002;6.488;2024-01-07T11:14:42;1.40;99.90
54192;DHT22;40101;53.002;6.488;2024-01-07T11:17:11;1.20;99.90
54192;DHT22;40101;53.002;6.488;2024-01-07T11:19:49;1.20;99.90
54192;DHT22;40101;53.002;6.488;2024-01-07T11:22:26;1.10;99.90
54192;DHT22;40101;53.002;6.488;2024-01-07T11:24:59;1.10;99.90
54192;DHT22;40101;53.002;6.488;2024-01-07T11:27:28;1.10;99.90
54192;DHT22;40101;53.002;6.488;2024-01-07T11:30:07;1.20;99.90
54192;DHT22;40101;53.002;6.488;2024-01-07T11:32:34;1.20;99.90
54192;DHT22;40101;53.002;6.488;2024-01-07T11:35:01;1.20;99.90
54192;DHT22;40101;53.002;6.488;2024-01-07T11:37:27;1.20;99.90
54192;DHT22;40101;53.002;6.488;2024-01-07T11:39:57;1.20;99.90
54192;DHT22;40101;53.002;6.488;2024-01-07T11:42:23;1.20;99.90
54192;DHT22;40101;53.002;6.488;2024-01-07T11:44:54;1.40;99.90
54192;DHT22;40101;53.002;6.488;2024-01-07T11:47:21;1.30;99.90
54192;DHT22;40101;53.002;6.488;2024-01-07T11:49:47;1.30;99.90
54192;DHT22;40101;53.002;6.488;2024-01-07T11:52:15;1.30;99.90
54192;DHT22;40101;53.002;6.488;2024-01-07T11:54:41;1.30;99.90
54192;DHT22;40101;53.002;6.488;2024-01-07T11:57:08;1.20;99.90
54192;DHT22;40101;53.002;6.488;2024-01-07T11:59:35;1.30;99.90
54192;DHT22;40101;53.002;6.488;2024-01-07T12:02:02;1.50;99.90
54192;DHT22;40101;53.002;6.488;2024-01-07T12:04:30;1.30;99.90
54192;DHT22;40101;53.002;6.488;2024-01-07T12:06:56;1.30;99.90
54192;DHT22;40101;53.002;6.488;2024-01-07T12:09:22;1.40;99.90
54192;DHT22;40101;53.002;6.488;2024-01-07T12:11:47;1.40;99.90
54192;DHT22;40101;53.002;6.488;2024-01-07T12:14:13;1.50;99.90
54192;DHT22;40101;53.002;6.488;2024-01-07T12:16:39;1.40;99.90
54192;DHT22;40101;53.002;6.488;2024-01-07T12:19:05;1.30;99.90
54192;DHT22;40101;53.002;6.488;2024-01-07T12:21:30;1.20;99.90
54192;DHT22;40101;53.002;6.488;2024-01-07T12:23:57;1.10;99.90
54192;DHT22;40101;53.002;6.488;2024-01-07T12:26:27;0.90;99.90
54192;DHT22;40101;53.002;6.488;2024-01-07T12:28:54;0.80;99.90
54192;DHT22;40101;53.002;6.488;2024-01-07T12:31:26;0.70;99.90
54192;DHT22;40101;53.002;6.488;2024-01-07T12:33:52;0.70;99.90
54192;DHT22;40101;53.002;6.488;2024-01-07T12:36:24;0.80;99.90
54192;DHT22;40101;53.002;6.488;2024-01-07T12:38:51;0.90;99.90
54192;DHT22;40101;53.002;6.488;2024-01-07T12:41:20;1.00;99.90
54192;DHT22;40101;53.002;6.488;2024-01-07T12:43:45;1.00;99.90
54192;DHT22;40101;53.002;6.488;2024-01-07T12:46:11;1.00;99.90
54192;DHT22;40101;53.002;6.488;2024-01-07T12:48:37;1.00;99.90
54192;DHT22;40101;53.002;6.488;2024-01-07T12:51:02;1.30;99.90
54192;DHT22;40101;53.002;6.488;2024-01-07T12:53:28;1.00;99.90
54192;DHT22;40101;53.002;6.488;2024-01-07T13:03:21;0.90;99.90
54192;DHT22;40101;53.002;6.488;2024-01-07T13:05:47;0.80;99.90
54192;DHT22;40101;53.002;6.488;2024-01-07T13:08:16;0.80;99.90
54192;DHT22;40101;53.002;6.488;2024-01-07T13:10:44;1.10;99.90
54192;DHT22;40101;53.002;6.488;2024-01-07T13:13:11;0.80;99.90
54192;DHT22;40101;53.002;6.488;2024-01-07T13:15:38;0.70;99.90
54192;DHT22;40101;53.002;6.488;2024-01-07T13:18:04;0.70;99.90
54192;DHT22;40101;53.002;6.488;2024-01-07T13:20:30;0.70;99.90
54192;DHT22;40101;53.002;6.488;2024-01-07T13:22:55;0.80;99.90
54192;DHT22;40101;53.002;6.488;2024-01-07T13:25:21;0.90;99.90
54192;DHT22;40101;53.002;6.488;2024-01-07T13:27:47;1.00;99.90
54192;DHT22;40101;53.002;6.488;2024-01-07T13:30:12;0.80;99.90
54192;DHT22;40101;53.002;6.488;2024-01-07T13:32:38;1.00;99.90
54192;DHT22;40101;53.002;6.488;2024-01-07T13:35:05;1.30;99.90
54192;DHT22;40101;53.002;6.488;2024-01-07T13:37:31;0.90;99.90
54192;DHT22;40101;53.002;6.488;2024-01-07T13:39:56;0.90;99.90
54192;DHT22;40101;53.002;6.488;2024-01-07T13:42:22;0.80;99.90
54192;DHT22;40101;53.002;6.488;2024-01-07T13:44:48;0.80;99.90
54192;DHT22;40101;53.002;6.488;2024-01-07T13:47:13;0.70;99.90
54192;DHT22;40101;53.002;6.488;2024-01-07T13:49:40;0.70;99.90
54192;DHT22;40101;53.002;6.488;2024-01-07T13:52:06;0.80;99.90
54192;DHT22;40101;53.002;6.488;2024-01-07T13:54:32;0.80;99.90
54192;DHT22;40101;53.002;6.488;2024-01-07T13:56:58;0.80;99.90
54192;DHT22;40101;53.002;6.488;2024-01-07T13:59:25;0.80;99.90
54192;DHT22;40101;53.002;6.488;2024-01-07T14:01:51;0.70;99.90
54192;DHT22;40101;53.002;6.488;2024-01-07T14:04:17;0.60;99.90
54192;DHT22;40101;53.002;6.488;2024-01-07T14:06:43;0.50;99.90
54192;DHT22;40101;53.002;6.488;2024-01-07T14:09:09;0.50;99.90
54192;DHT22;40101;53.002;6.488;2024-01-07T14:11:34;0.50;99.90
54192;DHT22;40101;53.002;6.488;2024-01-07T14:14:01;0.80;99.90
54192;DHT22;40101;53.002;6.488;2024-01-07T14:16:27;0.40;99.90
54192;DHT22;40101;53.002;6.488;2024-01-07T14:18:52;0.40;99.90
54192;DHT22;40101;53.002;6.488;2024-01-07T14:21:18;0.40;99.90
54192;DHT22;40101;53.002;6.488;2024-01-07T14:23:43;0.40;99.90
54192;DHT22;40101;53.002;6.488;2024-01-07T14:26:09;0.40;99.90
54192;DHT22;40101;53.002;6.488;2024-01-07T14:28:35;0.50;99.90
54192;DHT22;40101;53.002;6.488;2024-01-07T14:31:01;0.50;99.90
54192;DHT22;40101;53.002;6.488;2024-01-07T14:33:28;0.50;99.90
54192;DHT22;40101;53.002;6.488;2024-01-07T14:35:54;0.50;99.90
54192;DHT22;40101;53.002;6.488;2024-01-07T14:38:20;0.60;99.90
54192;DHT22;40101;53.002;6.488;2024-01-07T14:40:46;1.10;99.90
54192;DHT22;40101;53.002;6.488;2024-01-07T14:43:12;0.50;99.90
54192;DHT22;40101;53.002;6.488;2024-01-07T14:45:38;0.50;99.90
54192;DHT22;40101;53.002;6.488;2024-01-07T14:48:04;0.40;99.90
54192;DHT22;40101;53.002;6.488;2024-01-07T14:50:30;0.40;99.90
54192;DHT22;40101;53.002;6.488;2024-01-07T14:52:55;0.30;99.90
54192;DHT22;40101;53.002;6.488;2024-01-07T14:55:21;0.30;99.90
54192;DHT22;40101;53.002;6.488;2024-01-07T14:57:47;0.20;99.90
54192;DHT22;40101;53.002;6.488;2024-01-07T15:00:13;0.20;99.90
54192;DHT22;40101;53.002;6.488;2024-01-07T15:02:39;0.20;99.90
54192;DHT22;40101;53.002;6.488;2024-01-07T15:05:05;0.10;99.90
54192;DHT22;40101;53.002;6.488;2024-01-07T15:07:43;0.40;99.90
54192;DHT22;40101;53.002;6.488;2024-01-07T15:10:09;0.00;99.90
54192;DHT22;40101;53.002;6.488;2024-01-07T15:12:35;0.10;99.90
54192;DHT22;40101;53.002;6.488;2024-01-07T15:15:04;0.30;99.90
54192;DHT22;40101;53.002;6.488;2024-01-07T15:17:32;0.00;99.90
54192;DHT22;40101;53.002;6.488;2024-01-07T15:19:57;0.30;99.90
54192;DHT22;40101;53.002;6.488;2024-01-07T15:22:23;-0.10;99.90
54192;DHT22;40101;53.002;6.488;2024-01-07T15:24:49;-0.20;99.90
54192;DHT22;40101;53.002;6.488;2024-01-07T15:27:14;-0.20;99.90
54192;DHT22;40101;53.002;6.488;2024-01-07T15:29:40;-0.30;99.90
54192;DHT22;40101;53.002;6.488;2024-01-07T15:32:09;-0.30;99.90
54192;DHT22;40101;53.002;6.488;2024-01-07T15:34:34;-0.30;99.90
54192;DHT22;40101;53.002;6.488;2024-01-07T15:37:01;-0.40;99.90
54192;DHT22;40101;53.002;6.488;2024-01-07T15:39:26;-0.40;99.90
54192;DHT22;40101;53.002;6.488;2024-01-07T15:41:54;-0.40;99.90
54192;DHT22;40101;53.002;6.488;2024-01-07T15:44:22;-0.50;99.90
54192;DHT22;40101;53.002;6.488;2024-01-07T15:46:48;-0.50;99.90
54192;DHT22;40101;53.002;6.488;2024-01-07T15:49:14;-0.50;99.90
54192;DHT22;40101;53.002;6.488;2024-01-07T15:51:40;-0.60;99.90
54192;DHT22;40101;53.002;6.488;2024-01-07T15:54:06;-0.60;99.90
54192;DHT22;40101;53.002;6.488;2024-01-07T15:56:33;-0.30;99.90
54192;DHT22;40101;53.002;6.488;2024-01-07T15:58:58;-0.60;99.90
54192;DHT22;40101;53.002;6.488;2024-01-07T16:01:27;-0.60;99.90
54192;DHT22;40101;53.002;6.488;2024-01-07T16:03:53;-0.70;99.90